sensor_id;sensor_type;location;lat;lon;timestamp;P1;durP1;ratioP1;P2;durP2;ratioP2
37280;SDS011;23169;41.804;12.596;2022-08-19T00:04:31;27.23;;;6.95;;
37280;SDS011;23169;41.804;12.596;2022-08-19T00:07:05;25.30;;;5.82;;
37280;SDS011;23169;41.804;12.596;2022-08-19T00:09:34;27.15;;;7.40;;
37280;SDS011;23169;41.804;12.596;2022-08-19T00:12:03;22.73;;;5.18;;
37280;SDS011;23169;41.804;12.596;2022-08-19T00:14:33;27.70;;;5.68;;
37280;SDS011;23169;41.804;12.596;2022-08-19T00:17:02;29.02;;;7.53;;
37280;SDS011;23169;41.804;12.596;2022-08-19T00:19:32;25.70;;;5.60;;
37280;SDS011;23169;41.804;12.596;2022-08-19T00:22:00;27.05;;;5.78;;
37280;SDS011;23169;41.804;12.596;2022-08-19T00:24:31;28.25;;;5.65;;
37280;SDS011;23169;41.804;12.596;2022-08-19T00:27:00;24.27;;;5.65;;
37280;SDS011;23169;41.804;12.596;2022-08-19T00:29:29;26.67;;;5.95;;
37280;SDS011;23169;41.804;12.596;2022-08-19T00:31:59;27.95;;;5.43;;
37280;SDS011;23169;41.804;12.596;2022-08-19T00:34:28;29.95;;;5.72;;
37280;SDS011;23169;41.804;12.596;2022-08-19T00:36:57;17.50;;;5.07;;
37280;SDS011;23169;41.804;12.596;2022-08-19T00:39:27;24.63;;;5.38;;
37280;SDS011;23169;41.804;12.596;2022-08-19T00:41:55;27.08;;;6.22;;
37280;SDS011;23169;41.804;12.596;2022-08-19T00:44:26;28.38;;;5.57;;
37280;SDS011;23169;41.804;12.596;2022-08-19T00:46:58;27.05;;;6.22;;
37280;SDS011;23169;41.804;12.596;2022-08-19T00:49:35;33.28;;;6.20;;
37280;SDS011;23169;41.804;12.596;2022-08-19T00:52:21;27.95;;;5.25;;
37280;SDS011;23169;41.804;12.596;2022-08-19T00:54:52;29.67;;;5.70;;
37280;SDS011;23169;41.804;12.596;2022-08-19T00:57:23;31.67;;;6.65;;
37280;SDS011;23169;41.804;12.596;2022-08-19T01:00:14;26.90;;;5.82;;
37280;SDS011;23169;41.804;12.596;2022-08-19T01:02:45;28.63;;;6.10;;
37280;SDS011;23169;41.804;12.596;2022-08-19T01:05:17;24.67;;;5.65;;
37280;SDS011;23169;41.804;12.596;2022-08-19T01:07:56;25.73;;;5.80;;
37280;SDS011;23169;41.804;12.596;2022-08-19T01:10:27;23.27;;;5.53;;
37280;SDS011;23169;41.804;12.596;2022-08-19T01:13:01;28.45;;;5.20;;
37280;SDS011;23169;41.804;12.596;2022-08-19T01:15:38;32.95;;;5.60;;
37280;SDS011;23169;41.804;12.596;2022-08-19T01:18:14;27.88;;;4.95;;
37280;SDS011;23169;41.804;12.596;2022-08-19T01:20:46;17.63;;;4.55;;
37280;SDS011;23169;41.804;12.596;2022-08-19T01:23:15;29.10;;;5.90;;
37280;SDS011;23169;41.804;12.596;2022-08-19T01:25:45;27.25;;;6.38;;
37280;SDS011;23169;41.804;12.596;2022-08-19T01:28:19;25.60;;;4.93;;
37280;SDS011;23169;41.804;12.596;2022-08-19T01:30:50;22.55;;;4.97;;
37280;SDS011;23169;41.804;12.596;2022-08-19T01:33:19;24.27;;;5.90;;
37280;SDS011;23169;41.804;12.596;2022-08-19T01:35:48;18.10;;;4.38;;
37280;SDS011;23169;41.804;12.596;2022-08-19T01:38:21;20.55;;;5.18;;
37280;SDS011;23169;41.804;12.596;2022-08-19T01:40:54;25.70;;;4.63;;
37280;SDS011;23169;41.804;12.596;2022-08-19T01:43:22;22.25;;;4.18;;
37280;SDS011;23169;41.804;12.596;2022-08-19T01:45:51;29.60;;;4.68;;
37280;SDS011;23169;41.804;12.596;2022-08-19T01:48:20;25.30;;;5.78;;
37280;SDS011;23169;41.804;12.596;2022-08-19T01:50:49;22.20;;;5.25;;
37280;SDS011;23169;41.804;12.596;2022-08-19T01:53:17;20.13;;;4.47;;
37280;SDS011;23169;41.804;12.596;2022-08-19T01:55:46;32.03;;;4.63;;
37280;SDS011;23169;41.804;12.596;2022-08-19T01:58:17;24.65;;;4.55;;
37280;SDS011;23169;41.804;12.596;2022-08-19T02:00:50;26.23;;;4.45;;
37280;SDS011;23169;41.804;12.596;2022-08-19T02:03:18;27.80;;;5.13;;
37280;SDS011;23169;41.804;12.596;2022-08-19T02:05:46;21.05;;;5.18;;
37280;SDS011;23169;41.804;12.596;2022-08-19T02:08:15;23.05;;;5.50;;
37280;SDS011;23169;41.804;12.596;2022-08-19T02:10:46;21.83;;;4.53;;
37280;SDS011;23169;41.804;12.596;2022-08-19T02:13:15;23.33;;;4.45;;
37280;SDS011;23169;41.804;12.596;2022-08-19T02:15:44;25.40;;;4.90;;
37280;SDS011;23169;41.804;12.596;2022-08-19T02:18:12;21.50;;;4.63;;
37280;SDS011;23169;41.804;12.596;2022-08-19T02:20:41;25.65;;;5.65;;
37280;SDS011;23169;41.804;12.596;2022-08-19T02:23:12;26.10;;;5.55;;
37280;SDS011;23169;41.804;12.596;2022-08-19T02:25:42;23.05;;;4.68;;
37280;SDS011;23169;41.804;12.596;2022-08-19T02:28:14;29.30;;;5.30;;
37280;SDS011;23169;41.804;12.596;2022-08-19T02:30:43;21.85;;;4.45;;
37280;SDS011;23169;41.804;12.596;2022-08-19T02:33:12;22.52;;;5.10;;
37280;SDS011;23169;41.804;12.596;2022-08-19T02:35:41;17.48;;;4.00;;
37280;SDS011;23169;41.804;12.596;2022-08-19T02:38:11;26.85;;;5.72;;
37280;SDS011;23169;41.804;12.596;2022-08-19T02:41:01;29.33;;;5.10;;
37280;SDS011;23169;41.804;12.596;2022-08-19T02:43:42;25.45;;;4.90;;
37280;SDS011;23169;41.804;12.596;2022-08-19T02:46:21;25.55;;;5.70;;
37280;SDS011;23169;41.804;12.596;2022-08-19T02:48:52;25.42;;;5.05;;
37280;SDS011;23169;41.804;12.596;2022-08-19T02:51:27;23.15;;;5.10;;
37280;SDS011;23169;41.804;12.596;2022-08-19T02:53:59;27.08;;;5.50;;
37280;SDS011;23169;41.804;12.596;2022-08-19T02:56:33;25.42;;;5.10;;
37280;SDS011;23169;41.804;12.596;2022-08-19T02:59:03;25.58;;;6.97;;
37280;SDS011;23169;41.804;12.596;2022-08-19T03:01:39;22.92;;;4.75;;
37280;SDS011;23169;41.804;12.596;2022-08-19T03:04:10;24.95;;;5.50;;
37280;SDS011;23169;41.804;12.596;2022-08-19T03:06:40;22.38;;;5.15;;
37280;SDS011;23169;41.804;12.596;2022-08-19T03:09:11;24.70;;;4.93;;
37280;SDS011;23169;41.804;12.596;2022-08-19T03:11:40;20.73;;;4.85;;
37280;SDS011;23169;41.804;12.596;2022-08-19T03:14:09;24.55;;;5.07;;
37280;SDS011;23169;41.804;12.596;2022-08-19T03:16:48;22.25;;;4.88;;
37280;SDS011;23169;41.804;12.596;2022-08-19T03:19:21;17.10;;;4.88;;
37280;SDS011;23169;41.804;12.596;2022-08-19T03:21:49;21.65;;;5.45;;
37280;SDS011;23169;41.804;12.596;2022-08-19T03:24:19;23.20;;;5.10;;
37280;SDS011;23169;41.804;12.596;2022-08-19T03:26:49;19.88;;;4.72;;
37280;SDS011;23169;41.804;12.596;2022-08-19T03:29:28;25.70;;;5.22;;
37280;SDS011;23169;41.804;12.596;2022-08-19T03:32:00;22.05;;;5.65;;
37280;SDS011;23169;41.804;12.596;2022-08-19T03:34:31;21.73;;;5.20;;
37280;SDS011;23169;41.804;12.596;2022-08-19T03:37:06;22.08;;;5.75;;
37280;SDS011;23169;41.804;12.596;2022-08-19T03:39:42;20.48;;;5.22;;
37280;SDS011;23169;41.804;12.596;2022-08-19T03:42:13;20.55;;;5.45;;
37280;SDS011;23169;41.804;12.596;2022-08-19T03:44:43;24.33;;;5.10;;
37280;SDS011;23169;41.804;12.596;2022-08-19T03:47:12;20.15;;;5.22;;
37280;SDS011;23169;41.804;12.596;2022-08-19T03:49:44;22.70;;;5.38;;
37280;SDS011;23169;41.804;12.596;2022-08-19T03:52:12;23.60;;;5.35;;
37280;SDS011;23169;41.804;12.596;2022-08-19T03:54:43;24.40;;;5.28;;
37280;SDS011;23169;41.804;12.596;2022-08-19T03:57:12;14.88;;;3.83;;
37280;SDS011;23169;41.804;12.596;2022-08-19T03:59:44;18.40;;;4.53;;
37280;SDS011;23169;41.804;12.596;2022-08-19T04:02:12;25.08;;;5.78;;
37280;SDS011;23169;41.804;12.596;2022-08-19T04:04:42;20.08;;;4.97;;
37280;SDS011;23169;41.804;12.596;2022-08-19T04:07:11;15.65;;;4.57;;
37280;SDS011;23169;41.804;12.596;2022-08-19T04:09:43;16.52;;;5.90;;
37280;SDS011;23169;41.804;12.596;2022-08-19T04:12:14;21.92;;;5.45;;
37280;SDS011;23169;41.804;12.596;2022-08-19T04:14:46;17.00;;;4.93;;
37280;SDS011;23169;41.804;12.596;2022-08-19T04:17:14;24.25;;;5.72;;
37280;SDS011;23169;41.804;12.596;2022-08-19T04:19:43;20.75;;;5.63;;
37280;SDS011;23169;41.804;12.596;2022-08-19T04:22:12;15.85;;;4.97;;
37280;SDS011;23169;41.804;12.596;2022-08-19T04:24:40;17.63;;;5.53;;
37280;SDS011;23169;41.804;12.596;2022-08-19T04:27:08;18.85;;;5.35;;
37280;SDS011;23169;41.804;12.596;2022-08-19T04:29:36;22.75;;;5.22;;
37280;SDS011;23169;41.804;12.596;2022-08-19T04:32:07;18.05;;;4.90;;
37280;SDS011;23169;41.804;12.596;2022-08-19T04:34:35;22.52;;;6.00;;
37280;SDS011;23169;41.804;12.596;2022-08-19T04:37:07;16.08;;;5.35;;
37280;SDS011;23169;41.804;12.596;2022-08-19T04:39:39;20.60;;;5.20;;
37280;SDS011;23169;41.804;12.596;2022-08-19T04:42:26;17.30;;;5.75;;
37280;SDS011;23169;41.804;12.596;2022-08-19T04:45:08;19.52;;;5.47;;
37280;SDS011;23169;41.804;12.596;2022-08-19T04:47:40;15.18;;;4.75;;
37280;SDS011;23169;41.804;12.596;2022-08-19T04:50:09;17.98;;;5.00;;
37280;SDS011;23169;41.804;12.596;2022-08-19T04:52:39;19.40;;;5.45;;
37280;SDS011;23169;41.804;12.596;2022-08-19T04:55:10;23.98;;;5.93;;
37280;SDS011;23169;41.804;12.596;2022-08-19T04:57:40;20.40;;;5.63;;
37280;SDS011;23169;41.804;12.596;2022-08-19T05:00:08;19.80;;;5.03;;
37280;SDS011;23169;41.804;12.596;2022-08-19T05:02:38;17.10;;;5.38;;
37280;SDS011;23169;41.804;12.596;2022-08-19T05:05:06;20.55;;;5.68;;
37280;SDS011;23169;41.804;12.596;2022-08-19T05:07:36;21.75;;;5.75;;
37280;SDS011;23169;41.804;12.596;2022-08-19T05:10:04;24.52;;;5.68;;
37280;SDS011;23169;41.804;12.596;2022-08-19T05:12:34;18.80;;;4.68;;
37280;SDS011;23169;41.804;12.596;2022-08-19T05:15:03;20.33;;;5.70;;
37280;SDS011;23169;41.804;12.596;2022-08-19T05:17:35;19.08;;;5.93;;
37280;SDS011;23169;41.804;12.596;2022-08-19T05:20:04;21.20;;;5.38;;
37280;SDS011;23169;41.804;12.596;2022-08-19T05:22:54;21.02;;;5.97;;
37280;SDS011;23169;41.804;12.596;2022-08-19T05:25:22;19.25;;;5.22;;
37280;SDS011;23169;41.804;12.596;2022-08-19T05:27:53;21.55;;;6.68;;
37280;SDS011;23169;41.804;12.596;2022-08-19T05:30:24;16.88;;;5.13;;
37280;SDS011;23169;41.804;12.596;2022-08-19T05:32:52;20.92;;;6.47;;
37280;SDS011;23169;41.804;12.596;2022-08-19T05:35:23;18.42;;;5.13;;
37280;SDS011;23169;41.804;12.596;2022-08-19T05:37:51;17.38;;;4.57;;
37280;SDS011;23169;41.804;12.596;2022-08-19T05:40:22;18.35;;;5.45;;
37280;SDS011;23169;41.804;12.596;2022-08-19T05:42:50;16.70;;;4.55;;
37280;SDS011;23169;41.804;12.596;2022-08-19T05:45:19;16.42;;;5.13;;
37280;SDS011;23169;41.804;12.596;2022-08-19T05:47:48;14.82;;;4.57;;
37280;SDS011;23169;41.804;12.596;2022-08-19T05:50:16;14.50;;;4.63;;
37280;SDS011;23169;41.804;12.596;2022-08-19T05:52:45;14.38;;;4.45;;
37280;SDS011;23169;41.804;12.596;2022-08-19T05:55:13;14.32;;;4.97;;
37280;SDS011;23169;41.804;12.596;2022-08-19T05:57:48;22.73;;;5.72;;
37280;SDS011;23169;41.804;12.596;2022-08-19T06:00:19;15.15;;;4.70;;
37280;SDS011;23169;41.804;12.596;2022-08-19T06:02:47;15.23;;;4.80;;
37280;SDS011;23169;41.804;12.596;2022-08-19T06:05:19;19.52;;;5.03;;
37280;SDS011;23169;41.804;12.596;2022-08-19T06:07:47;22.75;;;5.80;;
37280;SDS011;23169;41.804;12.596;2022-08-19T06:10:17;21.95;;;5.65;;
37280;SDS011;23169;41.804;12.596;2022-08-19T06:12:45;28.83;;;5.70;;
37280;SDS011;23169;41.804;12.596;2022-08-19T06:15:13;13.30;;;4.20;;
37280;SDS011;23169;41.804;12.596;2022-08-19T06:17:42;13.40;;;4.30;;
37280;SDS011;23169;41.804;12.596;2022-08-19T06:20:14;20.48;;;5.10;;
37280;SDS011;23169;41.804;12.596;2022-08-19T06:22:44;21.50;;;5.25;;
37280;SDS011;23169;41.804;12.596;2022-08-19T06:25:14;14.38;;;4.40;;
37280;SDS011;23169;41.804;12.596;2022-08-19T06:27:45;29.95;;;5.90;;
37280;SDS011;23169;41.804;12.596;2022-08-19T06:30:14;18.17;;;5.00;;
37280;SDS011;23169;41.804;12.596;2022-08-19T06:32:44;11.50;;;3.90;;
37280;SDS011;23169;41.804;12.596;2022-08-19T06:35:12;9.93;;;3.80;;
37280;SDS011;23169;41.804;12.596;2022-08-19T06:37:42;15.52;;;5.00;;
37280;SDS011;23169;41.804;12.596;2022-08-19T06:40:10;14.68;;;4.28;;
37280;SDS011;23169;41.804;12.596;2022-08-19T06:42:39;12.65;;;3.75;;
37280;SDS011;23169;41.804;12.596;2022-08-19T06:45:08;13.15;;;3.67;;
37280;SDS011;23169;41.804;12.596;2022-08-19T06:47:36;15.05;;;3.95;;
37280;SDS011;23169;41.804;12.596;2022-08-19T06:50:06;19.40;;;3.78;;
37280;SDS011;23169;41.804;12.596;2022-08-19T06:52:35;18.08;;;4.15;;
37280;SDS011;23169;41.804;12.596;2022-08-19T06:55:04;18.02;;;5.03;;
37280;SDS011;23169;41.804;12.596;2022-08-19T06:57:33;16.73;;;3.75;;
37280;SDS011;23169;41.804;12.596;2022-08-19T07:00:03;12.82;;;3.88;;
37280;SDS011;23169;41.804;12.596;2022-08-19T07:02:32;18.08;;;3.85;;
37280;SDS011;23169;41.804;12.596;2022-08-19T07:05:05;19.67;;;4.28;;
37280;SDS011;23169;41.804;12.596;2022-08-19T07:07:35;15.00;;;3.97;;
37280;SDS011;23169;41.804;12.596;2022-08-19T07:10:04;12.13;;;3.60;;
37280;SDS011;23169;41.804;12.596;2022-08-19T07:12:35;13.02;;;3.85;;
37280;SDS011;23169;41.804;12.596;2022-08-19T07:15:04;15.30;;;4.72;;
37280;SDS011;23169;41.804;12.596;2022-08-19T07:17:35;12.88;;;3.60;;
37280;SDS011;23169;41.804;12.596;2022-08-19T07:20:07;15.82;;;4.07;;
37280;SDS011;23169;41.804;12.596;2022-08-19T07:22:36;11.43;;;3.40;;
37280;SDS011;23169;41.804;12.596;2022-08-19T07:25:06;14.65;;;3.67;;
37280;SDS011;23169;41.804;12.596;2022-08-19T07:27:36;13.55;;;3.58;;
37280;SDS011;23169;41.804;12.596;2022-08-19T07:30:04;11.27;;;2.78;;
37280;SDS011;23169;41.804;12.596;2022-08-19T07:32:34;13.90;;;3.50;;
37280;SDS011;23169;41.804;12.596;2022-08-19T07:35:02;15.35;;;3.95;;
37280;SDS011;23169;41.804;12.596;2022-08-19T07:37:32;15.30;;;4.00;;
37280;SDS011;23169;41.804;12.596;2022-08-19T07:40:01;14.55;;;3.83;;
37280;SDS011;23169;41.804;12.596;2022-08-19T07:42:32;18.45;;;4.00;;
37280;SDS011;23169;41.804;12.596;2022-08-19T07:45:01;15.05;;;4.40;;
37280;SDS011;23169;41.804;12.596;2022-08-19T07:47:33;12.73;;;3.47;;
37280;SDS011;23169;41.804;12.596;2022-08-19T07:50:02;12.48;;;3.38;;
37280;SDS011;23169;41.804;12.596;2022-08-19T07:52:32;9.40;;;3.58;;
37280;SDS011;23169;41.804;12.596;2022-08-19T07:55:01;8.07;;;3.17;;
37280;SDS011;23169;41.804;12.596;2022-08-19T07:57:31;9.20;;;3.28;;
37280;SDS011;23169;41.804;12.596;2022-08-19T08:00:00;19.15;;;3.65;;
37280;SDS011;23169;41.804;12.596;2022-08-19T08:02:28;14.73;;;4.28;;
37280;SDS011;23169;41.804;12.596;2022-08-19T08:04:57;9.60;;;3.65;;
37280;SDS011;23169;41.804;12.596;2022-08-19T08:07:46;11.52;;;3.28;;
37280;SDS011;23169;41.804;12.596;2022-08-19T08:13:00;10.77;;;3.45;;
37280;SDS011;23169;41.804;12.596;2022-08-19T08:15:29;13.32;;;3.88;;
37280;SDS011;23169;41.804;12.596;2022-08-19T08:17:58;14.32;;;3.65;;
37280;SDS011;23169;41.804;12.596;2022-08-19T08:20:26;17.40;;;3.97;;
37280;SDS011;23169;41.804;12.596;2022-08-19T08:22:54;9.60;;;3.53;;
37280;SDS011;23169;41.804;12.596;2022-08-19T08:25:42;13.75;;;3.42;;
37280;SDS011;23169;41.804;12.596;2022-08-19T08:28:10;12.30;;;3.83;;
37280;SDS011;23169;41.804;12.596;2022-08-19T08:30:39;14.68;;;3.67;;
37280;SDS011;23169;41.804;12.596;2022-08-19T08:33:09;8.40;;;3.58;;
37280;SDS011;23169;41.804;12.596;2022-08-19T08:35:39;10.95;;;3.08;;
37280;SDS011;23169;41.804;12.596;2022-08-19T08:38:09;12.13;;;3.45;;
37280;SDS011;23169;41.804;12.596;2022-08-19T08:40:45;9.30;;;3.47;;
37280;SDS011;23169;41.804;12.596;2022-08-19T08:43:27;10.38;;;3.58;;
37280;SDS011;23169;41.804;12.596;2022-08-19T08:46:08;11.32;;;3.53;;
37280;SDS011;23169;41.804;12.596;2022-08-19T08:48:49;10.82;;;3.47;;
37280;SDS011;23169;41.804;12.596;2022-08-19T08:51:24;10.02;;;3.63;;
37280;SDS011;23169;41.804;12.596;2022-08-19T08:54:02;12.60;;;3.20;;
37280;SDS011;23169;41.804;12.596;2022-08-19T08:56:34;9.90;;;3.47;;
37280;SDS011;23169;41.804;12.596;2022-08-19T08:59:07;12.25;;;3.53;;
37280;SDS011;23169;41.804;12.596;2022-08-19T09:01:40;18.45;;;3.22;;
37280;SDS011;23169;41.804;12.596;2022-08-19T09:04:08;11.35;;;2.85;;
37280;SDS011;23169;41.804;12.596;2022-08-19T09:09:40;13.95;;;3.47;;
37280;SDS011;23169;41.804;12.596;2022-08-19T09:14:48;20.60;;;4.15;;
37280;SDS011;23169;41.804;12.596;2022-08-19T09:17:22;16.00;;;4.00;;
37280;SDS011;23169;41.804;12.596;2022-08-19T09:20:03;13.15;;;3.78;;
37280;SDS011;23169;41.804;12.596;2022-08-19T09:22:39;13.95;;;4.15;;
37280;SDS011;23169;41.804;12.596;2022-08-19T09:25:15;16.35;;;3.70;;
37280;SDS011;23169;41.804;12.596;2022-08-19T09:27:45;11.50;;;3.78;;
37280;SDS011;23169;41.804;12.596;2022-08-19T09:30:16;21.75;;;3.50;;
37280;SDS011;23169;41.804;12.596;2022-08-19T09:32:46;8.90;;;3.28;;
37280;SDS011;23169;41.804;12.596;2022-08-19T09:35:15;13.10;;;3.65;;
37280;SDS011;23169;41.804;12.596;2022-08-19T09:37:44;12.70;;;3.22;;
37280;SDS011;23169;41.804;12.596;2022-08-19T09:40:12;11.20;;;3.92;;
37280;SDS011;23169;41.804;12.596;2022-08-19T09:42:41;10.20;;;4.18;;
37280;SDS011;23169;41.804;12.596;2022-08-19T09:45:11;8.43;;;3.47;;
37280;SDS011;23169;41.804;12.596;2022-08-19T09:47:39;10.00;;;3.00;;
37280;SDS011;23169;41.804;12.596;2022-08-19T09:50:09;12.38;;;3.97;;
37280;SDS011;23169;41.804;12.596;2022-08-19T09:52:38;9.95;;;3.53;;
37280;SDS011;23169;41.804;12.596;2022-08-19T09:55:10;12.60;;;3.90;;
37280;SDS011;23169;41.804;12.596;2022-08-19T09:57:39;10.57;;;4.15;;
37280;SDS011;23169;41.804;12.596;2022-08-19T10:00:08;12.90;;;3.45;;
37280;SDS011;23169;41.804;12.596;2022-08-19T10:02:37;12.20;;;4.03;;
37280;SDS011;23169;41.804;12.596;2022-08-19T10:05:06;16.27;;;3.70;;
37280;SDS011;23169;41.804;12.596;2022-08-19T10:07:54;8.75;;;3.42;;
37280;SDS011;23169;41.804;12.596;2022-08-19T10:10:22;11.55;;;3.47;;
37280;SDS011;23169;41.804;12.596;2022-08-19T10:12:51;9.65;;;2.75;;
37280;SDS011;23169;41.804;12.596;2022-08-19T10:15:19;11.00;;;3.75;;
37280;SDS011;23169;41.804;12.596;2022-08-19T10:17:48;9.85;;;3.20;;
37280;SDS011;23169;41.804;12.596;2022-08-19T10:20:19;13.38;;;3.85;;
37280;SDS011;23169;41.804;12.596;2022-08-19T10:22:49;15.05;;;3.90;;
37280;SDS011;23169;41.804;12.596;2022-08-19T10:25:17;15.70;;;4.28;;
37280;SDS011;23169;41.804;12.596;2022-08-19T10:27:45;15.60;;;3.97;;
37280;SDS011;23169;41.804;12.596;2022-08-19T10:30:14;17.77;;;4.47;;
37280;SDS011;23169;41.804;12.596;2022-08-19T10:32:42;10.25;;;3.67;;
37280;SDS011;23169;41.804;12.596;2022-08-19T10:35:12;14.65;;;3.97;;
37280;SDS011;23169;41.804;12.596;2022-08-19T10:37:42;14.35;;;4.32;;
37280;SDS011;23169;41.804;12.596;2022-08-19T10:40:10;8.00;;;3.05;;
37280;SDS011;23169;41.804;12.596;2022-08-19T10:42:39;11.48;;;3.78;;
37280;SDS011;23169;41.804;12.596;2022-08-19T10:45:08;5.60;;;3.22;;
37280;SDS011;23169;41.804;12.596;2022-08-19T10:47:42;13.68;;;5.00;;
37280;SDS011;23169;41.804;12.596;2022-08-19T10:50:13;13.48;;;4.28;;
37280;SDS011;23169;41.804;12.596;2022-08-19T10:55:31;14.50;;;4.18;;
37280;SDS011;23169;41.804;12.596;2022-08-19T10:58:18;18.25;;;4.10;;
37280;SDS011;23169;41.804;12.596;2022-08-19T11:00:57;12.75;;;4.45;;
37280;SDS011;23169;41.804;12.596;2022-08-19T11:03:27;18.15;;;4.18;;
37280;SDS011;23169;41.804;12.596;2022-08-19T11:05:59;16.60;;;4.38;;
37280;SDS011;23169;41.804;12.596;2022-08-19T11:08:30;13.00;;;3.75;;
37280;SDS011;23169;41.804;12.596;2022-08-19T11:11:01;12.38;;;4.00;;
37280;SDS011;23169;41.804;12.596;2022-08-19T11:13:34;13.38;;;4.22;;
37280;SDS011;23169;41.804;12.596;2022-08-19T11:16:08;17.35;;;4.15;;
37280;SDS011;23169;41.804;12.596;2022-08-19T11:18:43;17.77;;;4.55;;
37280;SDS011;23169;41.804;12.596;2022-08-19T11:21:17;15.15;;;3.92;;
37280;SDS011;23169;41.804;12.596;2022-08-19T11:26:22;8.52;;;2.97;;
37280;SDS011;23169;41.804;12.596;2022-08-19T11:28:51;15.52;;;3.80;;
37280;SDS011;23169;41.804;12.596;2022-08-19T11:31:23;16.40;;;3.90;;
37280;SDS011;23169;41.804;12.596;2022-08-19T11:33:53;13.60;;;3.78;;
37280;SDS011;23169;41.804;12.596;2022-08-19T11:36:23;9.43;;;3.45;;
37280;SDS011;23169;41.804;12.596;2022-08-19T11:38:51;7.00;;;3.35;;
37280;SDS011;23169;41.804;12.596;2022-08-19T11:41:21;7.57;;;3.78;;
37280;SDS011;23169;41.804;12.596;2022-08-19T11:43:51;6.05;;;3.45;;
37280;SDS011;23169;41.804;12.596;2022-08-19T11:46:22;5.47;;;3.92;;
37280;SDS011;23169;41.804;12.596;2022-08-19T11:48:53;11.57;;;3.58;;
37280;SDS011;23169;41.804;12.596;2022-08-19T11:51:22;11.00;;;4.13;;
37280;SDS011;23169;41.804;12.596;2022-08-19T11:53:56;9.40;;;3.38;;
37280;SDS011;23169;41.804;12.596;2022-08-19T11:56:27;7.60;;;3.75;;
37280;SDS011;23169;41.804;12.596;2022-08-19T11:58:55;10.50;;;3.80;;
37280;SDS011;23169;41.804;12.596;2022-08-19T12:01:25;7.78;;;3.40;;
37280;SDS011;23169;41.804;12.596;2022-08-19T12:03:54;9.60;;;3.70;;
37280;SDS011;23169;41.804;12.596;2022-08-19T12:06:25;5.63;;;3.50;;
37280;SDS011;23169;41.804;12.596;2022-08-19T12:08:56;8.38;;;3.42;;
37280;SDS011;23169;41.804;12.596;2022-08-19T12:11:26;5.28;;;2.70;;
37280;SDS011;23169;41.804;12.596;2022-08-19T12:13:55;5.63;;;2.80;;
37280;SDS011;23169;41.804;12.596;2022-08-19T12:16:25;9.55;;;3.83;;
37280;SDS011;23169;41.804;12.596;2022-08-19T12:18:57;8.65;;;2.97;;
37280;SDS011;23169;41.804;12.596;2022-08-19T12:21:31;9.30;;;2.67;;
37280;SDS011;23169;41.804;12.596;2022-08-19T12:24:03;7.57;;;2.95;;
37280;SDS011;23169;41.804;12.596;2022-08-19T12:26:33;10.88;;;3.08;;
37280;SDS011;23169;41.804;12.596;2022-08-19T12:29:03;10.43;;;3.70;;
37280;SDS011;23169;41.804;12.596;2022-08-19T12:31:31;13.85;;;3.70;;
37280;SDS011;23169;41.804;12.596;2022-08-19T12:34:00;14.07;;;3.42;;
37280;SDS011;23169;41.804;12.596;2022-08-19T12:36:31;11.93;;;3.58;;
37280;SDS011;23169;41.804;12.596;2022-08-19T12:38:59;9.23;;;3.35;;
37280;SDS011;23169;41.804;12.596;2022-08-19T12:41:27;8.45;;;3.55;;
37280;SDS011;23169;41.804;12.596;2022-08-19T12:43:56;8.13;;;3.00;;
37280;SDS011;23169;41.804;12.596;2022-08-19T12:46:24;9.18;;;3.33;;
37280;SDS011;23169;41.804;12.596;2022-08-19T12:48:56;5.30;;;2.85;;
37280;SDS011;23169;41.804;12.596;2022-08-19T12:51:24;10.32;;;3.40;;
37280;SDS011;23169;41.804;12.596;2022-08-19T12:53:54;10.38;;;3.25;;
37280;SDS011;23169;41.804;12.596;2022-08-19T12:56:22;10.15;;;3.40;;
37280;SDS011;23169;41.804;12.596;2022-08-19T12:58:51;9.93;;;3.22;;
37280;SDS011;23169;41.804;12.596;2022-08-19T13:01:19;8.57;;;3.92;;
37280;SDS011;23169;41.804;12.596;2022-08-19T13:03:48;9.07;;;3.33;;
37280;SDS011;23169;41.804;12.596;2022-08-19T13:06:16;8.93;;;3.50;;
37280;SDS011;23169;41.804;12.596;2022-08-19T13:08:46;6.03;;;3.85;;
37280;SDS011;23169;41.804;12.596;2022-08-19T13:11:15;15.25;;;3.40;;
37280;SDS011;23169;41.804;12.596;2022-08-19T13:13:47;5.68;;;3.35;;
37280;SDS011;23169;41.804;12.596;2022-08-19T13:16:18;12.18;;;3.75;;
37280;SDS011;23169;41.804;12.596;2022-08-19T13:18:49;14.30;;;3.80;;
37280;SDS011;23169;41.804;12.596;2022-08-19T13:21:21;8.90;;;3.47;;
37280;SDS011;23169;41.804;12.596;2022-08-19T13:23:55;12.25;;;3.97;;
37280;SDS011;23169;41.804;12.596;2022-08-19T13:26:23;10.18;;;3.40;;
37280;SDS011;23169;41.804;12.596;2022-08-19T13:28:51;13.63;;;4.30;;
37280;SDS011;23169;41.804;12.596;2022-08-19T13:34:31;6.40;;;3.53;;
37280;SDS011;23169;41.804;12.596;2022-08-19T13:37:03;8.43;;;3.13;;
37280;SDS011;23169;41.804;12.596;2022-08-19T13:39:32;8.07;;;3.83;;
37280;SDS011;23169;41.804;12.596;2022-08-19T13:42:02;8.45;;;3.85;;
37280;SDS011;23169;41.804;12.596;2022-08-19T13:44:36;9.57;;;3.25;;
37280;SDS011;23169;41.804;12.596;2022-08-19T13:47:05;10.68;;;3.55;;
37280;SDS011;23169;41.804;12.596;2022-08-19T13:49:35;9.75;;;3.80;;
37280;SDS011;23169;41.804;12.596;2022-08-19T13:52:04;12.18;;;3.80;;
37280;SDS011;23169;41.804;12.596;2022-08-19T13:54:33;11.75;;;3.63;;
37280;SDS011;23169;41.804;12.596;2022-08-19T13:57:02;12.88;;;4.10;;
37280;SDS011;23169;41.804;12.596;2022-08-19T13:59:30;12.55;;;3.30;;
37280;SDS011;23169;41.804;12.596;2022-08-19T14:02:00;18.10;;;4.40;;
37280;SDS011;23169;41.804;12.596;2022-08-19T14:04:29;17.50;;;4.32;;
37280;SDS011;23169;41.804;12.596;2022-08-19T14:06:58;10.63;;;3.42;;
37280;SDS011;23169;41.804;12.596;2022-08-19T14:09:26;20.83;;;4.38;;
37280;SDS011;23169;41.804;12.596;2022-08-19T14:11:57;12.95;;;4.15;;
37280;SDS011;23169;41.804;12.596;2022-08-19T14:14:25;17.90;;;3.90;;
37280;SDS011;23169;41.804;12.596;2022-08-19T14:16:53;15.23;;;3.83;;
37280;SDS011;23169;41.804;12.596;2022-08-19T14:19:22;9.25;;;3.75;;
37280;SDS011;23169;41.804;12.596;2022-08-19T14:21:50;14.48;;;3.85;;
37280;SDS011;23169;41.804;12.596;2022-08-19T14:24:18;16.40;;;3.53;;
37280;SDS011;23169;41.804;12.596;2022-08-19T14:26:47;12.30;;;3.70;;
37280;SDS011;23169;41.804;12.596;2022-08-19T14:29:16;14.82;;;3.45;;
37280;SDS011;23169;41.804;12.596;2022-08-19T14:31:45;12.50;;;3.13;;
37280;SDS011;23169;41.804;12.596;2022-08-19T14:34:16;13.60;;;3.22;;
37280;SDS011;23169;41.804;12.596;2022-08-19T14:36:45;15.50;;;3.28;;
37280;SDS011;23169;41.804;12.596;2022-08-19T14:39:13;12.10;;;3.67;;
37280;SDS011;23169;41.804;12.596;2022-08-19T14:41:42;8.73;;;2.90;;
37280;SDS011;23169;41.804;12.596;2022-08-19T14:44:10;9.52;;;3.17;;
37280;SDS011;23169;41.804;12.596;2022-08-19T14:46:40;14.13;;;3.55;;
37280;SDS011;23169;41.804;12.596;2022-08-19T14:49:12;11.00;;;3.72;;
37280;SDS011;23169;41.804;12.596;2022-08-19T14:51:41;12.88;;;3.10;;
37280;SDS011;23169;41.804;12.596;2022-08-19T14:54:09;15.90;;;3.67;;
37280;SDS011;23169;41.804;12.596;2022-08-19T14:56:37;11.57;;;3.40;;
37280;SDS011;23169;41.804;12.596;2022-08-19T14:59:08;13.50;;;3.63;;
37280;SDS011;23169;41.804;12.596;2022-08-19T15:01:36;12.05;;;3.35;;
37280;SDS011;23169;41.804;12.596;2022-08-19T15:04:04;9.70;;;3.65;;